Time;durP1;ratioP1;P1;durP2;ratioP2;P2;SDS_P1;SDS_P2;PMS_P1;PMS_P2;Temp;Humidity;BMP_temperature;BMP_pressure;BME280_temperature;BME280_humidity;BME280_pressure;Samples;Min_cycle;Max_cycle;Signal;HPM_P1;HPM_P2
2022/06/12 00:02:01;;;;;;;13.75;4.35;;;;;;;;;;5017217;28;20056;-67
2022/06/12 00:04:27;;;;;;;16.85;4.40;;;;;;;;;;5016317;28;20047;-66
2022/06/12 00:06:53;;;;;;;16.08;4.60;;;;;;;;;;5016693;28;20104;-67
2022/06/12 00:09:19;;;;;;;13.57;4.50;;;;;;;;;;5017202;28;20058;-67
2022/06/12 00:11:45;;;;;;;16.58;5.25;;;;;;;;;;5016226;28;20052;-66
2022/06/12 00:14:15;;;;;;;17.30;4.63;;;;;;;;;;5016579;28;20104;-67
2022/06/12 00:16:42;;;;;;;22.45;5.40;;;;;;;;;;5016084;28;20132;-67
2022/06/12 00:19:09;;;;;;;18.25;4.07;;;;;;;;;;5015330;28;20152;-66
2022/06/12 00:21:35;;;;;;;16.05;4.20;;;;;;;;;;5016079;28;20477;-66
2022/06/12 00:24:04;;;;;;;14.80;4.10;;;;;;;;;;5015463;28;20045;-66
2022/06/12 00:26:33;;;;;;;19.48;4.45;;;;;;;;;;5015803;28;20379;-66
2022/06/12 00:29:01;;;;;;;15.30;3.72;;;;;;;;;;5016114;28;20076;-66
2022/06/12 00:31:28;;;;;;;15.77;4.53;;;;;;;;;;5015045;28;20490;-66
2022/06/12 00:33:54;;;;;;;13.60;3.63;;;;;;;;;;5016177;28;20038;-66
2022/06/12 00:36:20;;;;;;;12.50;3.72;;;;;;;;;;5016335;28;20056;-67
2022/06/12 00:38:46;;;;;;;13.52;3.53;;;;;;;;;;5016183;28;20089;-66
2022/06/12 00:41:12;;;;;;;25.73;4.38;;;;;;;;;;5015814;28;20050;-66
2022/06/12 00:43:39;;;;;;;14.98;3.92;;;;;;;;;;5015587;28;20129;-66
2022/06/12 00:46:05;;;;;;;;;;;;;;;;;;5014744;28;20078;-66
2022/06/12 00:48:33;;;;;;;14.02;4.20;;;;;;;;;;5014822;28;19929;-66
2022/06/12 00:51:00;;;;;;;15.75;4.13;;;;;;;;;;5016091;28;20053;-66
2022/06/12 00:53:39;;;;;;;12.95;4.07;;;;;;;;;;5014027;28;20152;-65
2022/06/12 00:56:05;;;;;;;16.15;4.13;;;;;;;;;;5015915;28;20394;-65
2022/06/12 00:58:33;;;;;;;14.02;4.25;;;;;;;;;;5015327;28;20446;-65
2022/06/12 01:01:00;;;;;;;15.60;4.30;;;;;;;;;;5015990;28;20096;-66
2022/06/12 01:03:26;;;;;;;14.20;4.10;;;;;;;;;;5015266;28;20494;-65
2022/06/12 01:08:39;;;;;;;19.55;4.60;;;;;;;;;;5014749;28;20266;-65
2022/06/12 01:11:07;;;;;;;16.67;4.65;;;;;;;;;;5015285;28;20056;-66
2022/06/12 01:13:37;;;;;;;16.33;4.38;;;;;;;;;;5015580;28;20080;-66
2022/06/12 01:16:08;;;;;;;14.25;3.80;;;;;;;;;;5015477;28;20085;-65
2022/06/12 01:18:44;;;;;;;14.35;4.15;;;;;;;;;;5014986;28;20046;-65
2022/06/12 01:21:25;;;;;;;16.88;4.05;;;;;;;;;;5014880;28;20076;-65
2022/06/12 01:23:51;;;;;;;15.25;4.40;;;;;;;;;;5014541;28;20558;-65
2022/06/12 01:26:36;;;;;;;15.35;4.13;;;;;;;;;;5014993;28;20052;-65
2022/06/12 01:29:05;;;;;;;14.20;4.40;;;;;;;;;;5013775;28;20505;-66
2022/06/12 01:31:37;;;;;;;16.73;4.20;;;;;;;;;;5014038;28;20140;-65
2022/06/12 01:34:16;;;;;;;13.90;3.90;;;;;;;;;;5014593;28;20077;-66
2022/06/12 01:36:48;;;;;;;15.63;4.18;;;;;;;;;;5014821;28;20367;-66
2022/06/12 01:39:23;;;;;;;15.68;4.22;;;;;;;;;;5014508;28;20041;-65
2022/06/12 01:41:49;;;;;;;18.45;4.30;;;;;;;;;;5013695;28;20053;-66
2022/06/12 01:44:31;;;;;;;13.65;4.18;;;;;;;;;;5014719;28;20041;-65
2022/06/12 01:46:59;;;;;;;16.95;4.20;;;;;;;;;;5014507;28;20042;-66
2022/06/12 01:49:31;;;;;;;14.02;4.22;;;;;;;;;;5013823;28;20512;-66
2022/06/12 01:52:28;;;;;;;17.48;4.40;;;;;;;;;;5014526;28;20058;-65
2022/06/12 01:54:54;;;;;;;14.93;4.05;;;;;;;;;;5009327;28;20058;-65
2022/06/12 01:57:29;;;;;;;15.65;4.32;;;;;;;;;;5013334;28;20053;-66
2022/06/12 02:00:08;;;;;;;16.10;5.05;;;;;;;;;;5014138;28;20108;-65
2022/06/12 02:02:36;;;;;;;19.88;4.60;;;;;;;;;;5014242;28;20046;-65
2022/06/12 02:05:16;;;;;;;16.50;5.00;;;;;;;;;;5013023;28;20075;-66
2022/06/12 02:08:02;;;;;;;14.98;4.47;;;;;;;;;;5014332;28;20049;-66
2022/06/12 02:10:35;;;;;;;12.65;4.03;;;;;;;;;;5012335;28;20418;-65
2022/06/12 02:13:14;;;;;;;17.40;4.30;;;;;;;;;;5013987;28;20080;-65
2022/06/12 02:15:46;;;;;;;18.33;4.38;;;;;;;;;;5014483;28;20137;-66
2022/06/12 02:18:14;;;;;;;14.13;3.83;;;;;;;;;;5014156;28;20056;-66
2022/06/12 02:20:44;;;;;;;17.90;4.35;;;;;;;;;;5013901;28;20049;-66
2022/06/12 02:23:19;;;;;;;18.27;4.32;;;;;;;;;;5014170;28;20049;-65
2022/06/12 02:25:47;;;;;;;20.58;5.07;;;;;;;;;;5013399;28;20364;-66
2022/06/12 02:28:17;;;;;;;14.35;4.28;;;;;;;;;;5013985;28;20049;-66
2022/06/12 02:30:44;;;;;;;18.88;4.00;;;;;;;;;;5013857;28;20118;-66
2022/06/12 02:33:18;;;;;;;16.08;4.65;;;;;;;;;;5013788;28;20045;-66
2022/06/12 02:35:48;;;;;;;18.00;4.43;;;;;;;;;;5013649;28;20533;-66
2022/06/12 02:38:18;;;;;;;14.77;4.70;;;;;;;;;;5014015;28;20057;-65
2022/06/12 02:40:53;;;;;;;15.05;4.40;;;;;;;;;;5013806;28;20089;-65
2022/06/12 02:43:21;;;;;;;14.68;4.18;;;;;;;;;;5013762;28;20045;-66
2022/06/12 02:45:53;;;;;;;16.13;4.60;;;;;;;;;;5013504;28;20046;-66
2022/06/12 02:48:19;;;;;;;14.70;5.00;;;;;;;;;;5013135;28;20457;-65
2022/06/12 02:50:45;;;;;;;;;;;;;;;;;;5012730;28;20058;-66
2022/06/12 02:53:14;;;;;;;21.13;5.10;;;;;;;;;;5013047;28;20364;-66
2022/06/12 02:55:41;;;;;;;17.58;4.80;;;;;;;;;;5013156;28;20081;-66
2022/06/12 02:58:12;;;;;;;19.15;4.43;;;;;;;;;;5013051;28;20120;-65
2022/06/12 03:00:44;;;;;;;18.83;4.72;;;;;;;;;;5012190;28;20042;-65
2022/06/12 03:03:19;;;;;;;14.65;4.95;;;;;;;;;;5012456;28;20346;-65
2022/06/12 03:05:48;;;;;;;17.30;4.80;;;;;;;;;;5012005;28;20111;-65
2022/06/12 03:08:16;;;;;;;17.20;4.68;;;;;;;;;;5013056;28;20128;-66
2022/06/12 03:10:53;;;;;;;15.10;4.30;;;;;;;;;;5012213;28;20072;-66
2022/06/12 03:13:20;;;;;;;16.30;4.68;;;;;;;;;;5012096;28;20100;-65
2022/06/12 03:15:46;;;;;;;20.27;5.32;;;;;;;;;;5010987;28;20056;-66
2022/06/12 03:18:14;;;;;;;21.00;5.60;;;;;;;;;;5012298;28;20054;-66
2022/06/12 03:20:46;;;;;;;13.93;4.22;;;;;;;;;;5011100;28;20045;-65
2022/06/12 03:23:21;;;;;;;18.65;4.80;;;;;;;;;;5010147;28;20398;-66
2022/06/12 03:25:51;;;;;;;18.05;5.07;;;;;;;;;;5011138;28;20049;-65
2022/06/12 03:28:31;;;;;;;19.08;5.30;;;;;;;;;;5011938;28;20065;-65
2022/06/12 03:31:06;;;;;;;15.20;4.38;;;;;;;;;;5011558;28;20046;-66
2022/06/12 03:33:36;;;;;;;18.52;4.88;;;;;;;;;;5011575;28;20080;-66
2022/06/12 03:36:11;;;;;;;20.15;5.10;;;;;;;;;;5011313;28;20042;-66
2022/06/12 03:38:43;;;;;;;17.25;4.50;;;;;;;;;;5011121;28;20049;-65
2022/06/12 03:41:27;;;;;;;17.95;5.40;;;;;;;;;;5010222;28;20050;-66
2022/06/12 03:43:56;;;;;;;15.80;4.72;;;;;;;;;;5010741;28;20050;-66
2022/06/12 03:46:31;;;;;;;20.67;4.78;;;;;;;;;;5010441;28;20143;-66
2022/06/12 03:49:21;;;;;;;15.32;4.07;;;;;;;;;;5009928;28;20530;-65
2022/06/12 03:51:54;;;;;;;17.13;5.28;;;;;;;;;;5011336;28;20054;-66
2022/06/12 03:54:29;;;;;;;19.38;4.88;;;;;;;;;;5010943;28;20065;-66
2022/06/12 03:59:51;;;;;;;18.55;4.97;;;;;;;;;;5010529;28;20069;-65
2022/06/12 04:02:19;;;;;;;20.90;5.13;;;;;;;;;;5010612;28;20452;-66
2022/06/12 04:04:46;;;;;;;18.70;4.55;;;;;;;;;;5010245;28;20053;-66
2022/06/12 04:07:13;;;;;;;16.77;4.55;;;;;;;;;;5010773;28;20050;-66
2022/06/12 04:09:42;;;;;;;14.48;4.88;;;;;;;;;;5010682;28;20053;-66
2022/06/12 04:12:10;;;;;;;17.35;5.30;;;;;;;;;;5013102;28;20049;-66
2022/06/12 04:14:41;;;;;;;17.67;4.57;;;;;;;;;;5013193;28;20049;-66
2022/06/12 04:17:07;;;;;;;17.08;4.75;;;;;;;;;;5014227;28;20052;-66
2022/06/12 04:19:59;;;;;;;15.93;3.92;;;;;;;;;;5013727;28;20046;-66
2022/06/12 04:22:27;;;;;;;15.05;4.30;;;;;;;;;;5013952;28;20157;-65
2022/06/12 04:24:56;;;;;;;18.95;4.53;;;;;;;;;;5014017;28;20049;-66
2022/06/12 04:27:25;;;;;;;17.15;4.45;;;;;;;;;;5014060;28;20128;-66
2022/06/12 04:29:53;;;;;;;14.55;4.53;;;;;;;;;;5014092;28;20056;-66
2022/06/12 04:32:20;;;;;;;16.98;4.03;;;;;;;;;;5013280;28;20046;-66
2022/06/12 04:34:46;;;;;;;17.70;4.90;;;;;;;;;;5012222;28;20463;-65
2022/06/12 04:37:20;;;;;;;18.95;4.53;;;;;;;;;;5014000;28;20042;-66
2022/06/12 04:39:47;;;;;;;22.35;4.75;;;;;;;;;;5013997;28;20160;-65
2022/06/12 04:42:17;;;;;;;17.33;4.20;;;;;;;;;;5013140;28;20088;-65
2022/06/12 04:44:43;;;;;;;18.48;5.18;;;;;;;;;;5012135;28;20104;-65
2022/06/12 04:47:14;;;;;;;18.83;4.63;;;;;;;;;;5013466;28;20513;-64
2022/06/12 04:49:40;;;;;;;17.65;3.90;;;;;;;;;;5011691;28;20054;-65
2022/06/12 04:52:06;;;;;;;;;;;;;;;;;;5013778;28;20064;-65
2022/06/12 04:54:33;;;;;;;16.65;4.07;;;;;;;;;;5013302;28;19977;-65
2022/06/12 04:56:59;;;;;;;18.20;4.55;;;;;;;;;;5012386;28;20045;-65
2022/06/12 04:59:25;;;;;;;18.48;5.25;;;;;;;;;;5013324;28;20046;-65
2022/06/12 05:01:51;;;;;;;22.35;4.70;;;;;;;;;;5012750;28;20374;-65
2022/06/12 05:04:18;;;;;;;18.55;4.38;;;;;;;;;;5013484;28;20382;-65
2022/06/12 05:06:45;;;;;;;15.68;4.22;;;;;;;;;;5013128;28;20085;-65
2022/06/12 05:09:13;;;;;;;20.40;4.47;;;;;;;;;;5013189;28;20068;-65
2022/06/12 05:11:39;;;;;;;16.48;4.40;;;;;;;;;;5013165;28;20041;-65
2022/06/12 05:14:05;;;;;;;16.38;4.22;;;;;;;;;;5013113;28;20487;-65
2022/06/12 05:16:34;;;;;;;17.35;4.35;;;;;;;;;;5012495;28;20148;-65
2022/06/12 05:19:01;;;;;;;16.70;4.28;;;;;;;;;;5012651;28;20498;-65
2022/06/12 05:21:28;;;;;;;18.35;4.70;;;;;;;;;;5013281;28;20115;-65
2022/06/12 05:23:54;;;;;;;26.02;5.35;;;;;;;;;;5012592;28;20041;-65
2022/06/12 05:26:21;;;;;;;24.92;5.43;;;;;;;;;;5012713;28;20050;-65
2022/06/12 05:28:47;;;;;;;20.48;4.93;;;;;;;;;;5012071;28;20053;-65
2022/06/12 05:31:13;;;;;;;;;;;;;;;;;;5012424;28;20052;-65
2022/06/12 05:33:40;;;;;;;20.17;4.50;;;;;;;;;;5011683;28;20249;-65
2022/06/12 05:36:06;;;;;;;23.23;6.35;;;;;;;;;;5012328;28;20148;-66
2022/06/12 05:38:32;;;;;;;17.38;4.93;;;;;;;;;;5012804;28;20132;-65
2022/06/12 05:40:59;;;;;;;20.65;5.22;;;;;;;;;;5012232;28;20049;-67
2022/06/12 05:43:25;;;;;;;;;;;;;;;;;;5013916;28;20049;-65
2022/06/12 05:45:51;;;;;;;24.67;5.45;;;;;;;;;;5012742;28;20385;-66
2022/06/12 05:48:18;;;;;;;;;;;;;;;;;;5013276;28;20084;-66
2022/06/12 05:50:47;;;;;;;19.73;5.28;;;;;;;;;;5011845;28;19936;-65
2022/06/12 05:53:14;;;;;;;20.73;5.28;;;;;;;;;;5012469;28;20108;-66
2022/06/12 05:55:40;;;;;;;24.30;6.03;;;;;;;;;;5012945;28;20092;-66
2022/06/12 05:58:06;;;;;;;27.67;6.35;;;;;;;;;;5012705;28;20046;-66
2022/06/12 06:00:33;;;;;;;34.15;6.85;;;;;;;;;;5012321;28;20042;-66
2022/06/12 06:03:00;;;;;;;25.17;6.65;;;;;;;;;;5012318;28;20262;-66
2022/06/12 06:05:26;;;;;;;26.67;6.78;;;;;;;;;;5013061;28;20049;-66
2022/06/12 06:07:52;;;;;;;;;;;;;;;;;;5013181;28;20060;-66
2022/06/12 06:10:23;;;;;;;22.23;6.88;;;;;;;;;;5012687;28;19921;-66
2022/06/12 06:12:49;;;;;;;26.67;7.18;;;;;;;;;;5012749;28;20042;-66
2022/06/12 06:15:15;;;;;;;22.73;6.90;;;;;;;;;;5012442;28;20045;-65
2022/06/12 06:17:42;;;;;;;34.25;7.05;;;;;;;;;;5011936;28;20052;-66
2022/06/12 06:20:09;;;;;;;25.35;6.97;;;;;;;;;;5011282;28;20045;-66
2022/06/12 06:22:35;;;;;;;33.45;7.78;;;;;;;;;;5012290;28;20056;-65
2022/06/12 06:25:01;;;;;;;36.60;8.02;;;;;;;;;;5011268;28;20116;-67
2022/06/12 06:27:27;;;;;;;32.10;8.63;;;;;;;;;;5012767;28;20442;-66
2022/06/12 06:29:53;;;;;;;30.13;7.53;;;;;;;;;;4995876;28;20054;-65
2022/06/12 06:32:19;;;;;;;24.85;7.10;;;;;;;;;;5012182;28;20050;-66
2022/06/12 06:34:45;;;;;;;28.95;7.88;;;;;;;;;;5010882;28;20133;-65
2022/06/12 06:37:12;;;;;;;29.10;7.32;;;;;;;;;;5012618;28;20042;-65
2022/06/12 06:39:38;;;;;;;31.92;8.18;;;;;;;;;;5012289;28;20478;-65
2022/06/12 06:42:05;;;;;;;28.92;8.77;;;;;;;;;;5012560;28;20050;-65
2022/06/12 06:47:16;;;;;;;30.67;7.75;;;;;;;;;;5012242;28;20057;-67
2022/06/12 06:49:42;;;;;;;27.92;8.07;;;;;;;;;;5011723;28;20122;-64
2022/06/12 06:52:09;;;;;;;26.75;7.88;;;;;;;;;;5010912;28;20375;-65
2022/06/12 06:54:35;;;;;;;27.15;6.75;;;;;;;;;;5011792;28;20038;-65
2022/06/12 06:57:01;;;;;;;31.33;7.47;;;;;;;;;;5010472;28;20042;-66
2022/06/12 06:59:27;;;;;;;27.42;8.02;;;;;;;;;;5012203;28;20046;-66
2022/06/12 07:01:54;;;;;;;29.20;7.95;;;;;;;;;;5012600;28;20445;-65
2022/06/12 07:04:20;;;;;;;;;;;;;;;;;;5011139;28;20085;-66
2022/06/12 07:06:46;;;;;;;29.70;7.32;;;;;;;;;;5011413;28;19967;-66
2022/06/12 07:09:12;;;;;;;32.53;8.05;;;;;;;;;;5010206;28;20048;-65
2022/06/12 07:11:38;;;;;;;28.00;8.45;;;;;;;;;;5011076;28;20042;-66
2022/06/12 07:14:04;;;;;;;32.83;8.30;;;;;;;;;;5011529;28;20046;-66
2022/06/12 07:16:31;;;;;;;28.88;8.32;;;;;;;;;;5011572;28;20153;-66
2022/06/12 07:18:57;;;;;;;27.67;7.90;;;;;;;;;;5011189;28;20434;-66
2022/06/12 07:21:23;;;;;;;27.30;7.15;;;;;;;;;;5010515;28;20050;-65
2022/06/12 07:23:49;;;;;;;27.48;7.32;;;;;;;;;;5011764;28;20042;-66
2022/06/12 07:26:15;;;;;;;;;;;;;;;;;;5011258;28;20065;-66
2022/06/12 07:28:41;;;;;;;32.85;7.97;;;;;;;;;;5009753;28;19933;-65
2022/06/12 07:31:08;;;;;;;26.13;6.75;;;;;;;;;;5011256;28;20050;-66
2022/06/12 07:33:37;;;;;;;28.15;6.82;;;;;;;;;;5011071;28;20125;-66
2022/06/12 07:36:04;;;;;;;26.58;6.47;;;;;;;;;;5010900;28;20175;-66
2022/06/12 07:38:30;;;;;;;22.02;6.22;;;;;;;;;;5010178;28;20108;-65
2022/06/12 07:40:58;;;;;;;30.75;6.40;;;;;;;;;;5010034;28;20060;-65
2022/06/12 07:43:26;;;;;;;27.45;5.50;;;;;;;;;;5011254;28;20046;-66
2022/06/12 07:45:53;;;;;;;22.73;6.30;;;;;;;;;;5009880;28;20386;-66
2022/06/12 07:48:20;;;;;;;23.48;5.15;;;;;;;;;;5014416;28;20415;-66
2022/06/12 07:50:47;;;;;;;19.10;5.32;;;;;;;;;;5012622;28;20077;-66
2022/06/12 07:53:15;;;;;;;21.75;5.47;;;;;;;;;;5014294;28;20049;-66
2022/06/12 07:55:41;;;;;;;26.10;5.55;;;;;;;;;;5013322;28;20060;-66
2022/06/12 07:58:09;;;;;;;21.00;5.00;;;;;;;;;;5012948;28;20398;-67
2022/06/12 08:00:36;;;;;;;23.08;5.38;;;;;;;;;;5014864;28;20100;-66
2022/06/12 08:03:02;;;;;;;20.42;4.88;;;;;;;;;;5014591;28;20045;-67
2022/06/12 08:05:29;;;;;;;21.92;5.32;;;;;;;;;;5014365;28;20085;-68
2022/06/12 08:07:56;;;;;;;22.73;4.85;;;;;;;;;;5014369;28;20053;-67
2022/06/12 08:10:22;;;;;;;22.95;4.80;;;;;;;;;;4997649;28;20053;-67
2022/06/12 08:12:49;;;;;;;21.33;4.63;;;;;;;;;;5013488;28;20046;-67
2022/06/12 08:15:17;;;;;;;23.58;5.70;;;;;;;;;;5014092;28;20056;-67
2022/06/12 08:17:44;;;;;;;22.35;5.65;;;;;;;;;;5013638;28;20046;-68
2022/06/12 08:20:28;;;;;;;;;;;;;;;;;;5013968;28;20060;-66
2022/06/12 08:23:43;;;;;;;19.73;5.15;;;;;;;;;;5013988;28;19921;-66
2022/06/12 08:26:04;;;;;;;21.05;4.80;;;;;;;;;;5011798;28;20624;-66
2022/06/12 08:28:31;;;;;;;22.90;5.13;;;;;;;;;;5014269;28;20100;-67
2022/06/12 08:30:58;;;;;;;20.17;5.05;;;;;;;;;;4996180;28;20133;-67
2022/06/12 08:33:24;;;;;;;18.63;4.68;;;;;;;;;;5014326;28;20046;-66
2022/06/12 08:35:50;;;;;;;;;;;;;;;;;;5013085;28;20144;-67
2022/06/12 08:38:16;;;;;;;18.73;4.65;;;;;;;;;;4995381;28;19964;-67
2022/06/12 08:40:42;;;;;;;18.42;5.03;;;;;;;;;;5012154;28;20466;-67
2022/06/12 08:43:16;;;;;;;22.13;5.00;;;;;;;;;;5013911;28;20108;-67
2022/06/12 08:45:45;;;;;;;22.50;4.80;;;;;;;;;;5013974;28;20056;-67
2022/06/12 08:48:19;;;;;;;21.55;4.72;;;;;;;;;;5014481;28;20445;-66
2022/06/12 08:50:57;;;;;;;20.40;4.90;;;;;;;;;;5014922;28;20072;-67
2022/06/12 08:53:30;;;;;;;18.52;4.35;;;;;;;;;;5012870;28;20441;-65
2022/06/12 08:56:00;;;;;;;19.85;4.35;;;;;;;;;;5013693;28;20054;-67
2022/06/12 08:58:31;;;;;;;18.52;4.85;;;;;;;;;;5011445;28;20474;-66
2022/06/12 09:00:58;;;;;;;22.80;5.13;;;;;;;;;;5013960;28;20050;-66
2022/06/12 09:03:30;;;;;;;21.55;5.28;;;;;;;;;;5014513;28;20038;-67
2022/06/12 09:05:56;;;;;;;23.05;4.82;;;;;;;;;;5014199;28;20394;-67
2022/06/12 09:08:30;;;;;;;23.90;6.10;;;;;;;;;;5013926;28;20452;-67
2022/06/12 09:11:02;;;;;;;25.40;6.00;;;;;;;;;;5014422;28;20056;-67
2022/06/12 09:13:31;;;;;;;19.73;4.93;;;;;;;;;;5013327;28;20046;-69
2022/06/12 09:16:13;;;;;;;19.95;5.22;;;;;;;;;;5013082;28;20375;-68
2022/06/12 09:18:39;;;;;;;22.05;5.35;;;;;;;;;;5014251;28;20073;-68
2022/06/12 09:21:06;;;;;;;20.98;4.72;;;;;;;;;;5012680;28;20136;-68
2022/06/12 09:23:32;;;;;;;;;;;;;;;;;;5013533;28;20049;-67
2022/06/12 09:26:06;;;;;;;17.25;4.47;;;;;;;;;;5012681;28;19929;-67
2022/06/12 09:28:38;;;;;;;20.58;5.03;;;;;;;;;;5012780;28;20386;-67
2022/06/12 09:31:11;;;;;;;16.45;5.25;;;;;;;;;;5013027;28;20478;-68
2022/06/12 09:33:52;;;;;;;15.05;4.35;;;;;;;;;;5013282;28;20149;-71
2022/06/12 09:36:18;;;;;;;20.27;5.70;;;;;;;;;;5013235;28;20103;-68
2022/06/12 09:39:00;;;;;;;20.83;4.40;;;;;;;;;;5013360;28;20125;-71
2022/06/12 09:41:48;;;;;;;22.73;4.57;;;;;;;;;;5013680;28;20200;-69
2022/06/12 09:44:19;;;;;;;22.00;4.28;;;;;;;;;;5013510;28;20169;-69
2022/06/12 09:46:48;;;;;;;17.48;4.20;;;;;;;;;;5012335;28;20053;-68
2022/06/12 09:49:14;;;;;;;16.90;4.55;;;;;;;;;;5013057;28;20077;-68
2022/06/12 09:51:40;;;;;;;;;;;;;;;;;;5012197;28;20153;-69
2022/06/12 09:54:06;;;;;;;13.73;3.28;;;;;;;;;;5012358;28;20492;-67
2022/06/12 09:56:37;;;;;;;18.20;4.00;;;;;;;;;;5011624;28;20081;-69
2022/06/12 09:59:08;;;;;;;12.85;3.55;;;;;;;;;;5013141;28;20045;-69
2022/06/12 10:01:36;;;;;;;18.48;3.65;;;;;;;;;;5012998;28;20111;-68
2022/06/12 10:04:11;;;;;;;11.68;3.28;;;;;;;;;;5011416;28;20146;-68
2022/06/12 10:06:58;;;;;;;12.18;3.03;;;;;;;;;;5012716;28;20077;-68
2022/06/12 10:09:35;;;;;;;9.13;2.88;;;;;;;;;;5010691;28;20053;-69
2022/06/12 10:12:11;;;;;;;11.40;2.70;;;;;;;;;;5011495;28;20060;-68
2022/06/12 10:14:41;;;;;;;9.07;2.80;;;;;;;;;;5011448;28;20490;-68
2022/06/12 10:17:10;;;;;;;12.82;3.38;;;;;;;;;;5011587;28;20155;-68
2022/06/12 10:19:41;;;;;;;11.90;3.00;;;;;;;;;;5012418;28;20056;-67
2022/06/12 10:22:11;;;;;;;11.55;2.58;;;;;;;;;;5012523;28;20049;-66
2022/06/12 10:24:37;;;;;;;18.10;2.80;;;;;;;;;;5012043;28;20050;-67
2022/06/12 10:27:03;;;;;;;;;;;;;;;;;;5012569;28;20042;-70
2022/06/12 10:29:41;;;;;;;11.82;3.08;;;;;;;;;;5010969;28;19932;-67
2022/06/12 10:32:11;;;;;;;14.00;3.72;;;;;;;;;;5011780;28;20045;-66
2022/06/12 10:34:38;;;;;;;9.98;3.00;;;;;;;;;;5011259;28;20486;-69
2022/06/12 10:37:11;;;;;;;11.35;3.53;;;;;;;;;;5012078;28;20053;-67
2022/06/12 10:39:40;;;;;;;13.45;2.78;;;;;;;;;;5009490;28;20042;-67
2022/06/12 10:42:29;;;;;;;12.65;3.05;;;;;;;;;;5010147;28;20045;-68
2022/06/12 10:44:56;;;;;;;15.07;3.05;;;;;;;;;;5009548;28;20546;-67
2022/06/12 10:47:27;;;;;;;12.45;2.78;;;;;;;;;;5009685;28;20549;-65
2022/06/12 10:50:17;;;;;;;13.38;3.45;;;;;;;;;;5010716;28;20065;-67
2022/06/12 10:53:00;;;;;;;14.05;3.35;;;;;;;;;;5011673;28;20371;-68
2022/06/12 10:55:46;;;;;;;12.15;3.63;;;;;;;;;;5010118;28;20139;-68
2022/06/12 10:58:19;;;;;;;13.77;2.92;;;;;;;;;;5011006;28;20486;-67
2022/06/12 11:00:46;;;;;;;12.27;3.25;;;;;;;;;;5011406;28;20081;-66
2022/06/12 11:03:23;;;;;;;13.73;3.40;;;;;;;;;;5009608;28;20508;-66
2022/06/12 11:06:09;;;;;;;14.25;3.30;;;;;;;;;;5011108;28;20421;-68
2022/06/12 11:08:53;;;;;;;12.00;3.00;;;;;;;;;;5011506;28;20093;-69
2022/06/12 11:11:25;;;;;;;20.40;3.35;;;;;;;;;;5010067;28;20120;-65
2022/06/12 11:14:01;;;;;;;14.50;3.78;;;;;;;;;;5010450;28;20077;-69
2022/06/12 11:16:33;;;;;;;11.30;3.45;;;;;;;;;;5011801;28;20077;-68
2022/06/12 11:19:08;;;;;;;13.25;3.05;;;;;;;;;;5011639;28;20058;-65
2022/06/12 11:21:46;;;;;;;14.00;3.58;;;;;;;;;;5009990;28;20041;-68
2022/06/12 11:24:35;;;;;;;14.32;3.53;;;;;;;;;;5011510;28;20053;-66
2022/06/12 11:27:01;;;;;;;11.32;3.35;;;;;;;;;;5007212;28;20066;-68
2022/06/12 11:29:27;;;;;;;;;;;;;;;;;;5011740;28;20060;-66
2022/06/12 11:31:53;;;;;;;14.32;3.53;;;;;;;;;;5010655;28;19921;-67
2022/06/12 11:34:40;;;;;;;12.43;3.17;;;;;;;;;;5010751;28;20042;-65
2022/06/12 11:37:12;;;;;;;12.38;2.88;;;;;;;;;;5011608;28;20057;-65
2022/06/12 11:39:57;;;;;;;13.25;3.58;;;;;;;;;;5009590;28;20054;-64
2022/06/12 11:42:29;;;;;;;10.52;3.28;;;;;;;;;;5009871;28;20112;-65
2022/06/12 11:45:14;;;;;;;16.95;3.28;;;;;;;;;;5009557;28;20103;-66
2022/06/12 11:48:00;;;;;;;15.23;3.78;;;;;;;;;;5010847;28;20096;-67
2022/06/12 11:50:28;;;;;;;11.70;3.20;;;;;;;;;;4998711;28;20414;-67
2022/06/12 11:53:14;;;;;;;10.68;3.38;;;;;;;;;;5010133;28;20117;-65
2022/06/12 11:55:46;;;;;;;13.50;3.25;;;;;;;;;;5010092;28;20068;-64
2022/06/12 11:58:31;;;;;;;11.50;2.92;;;;;;;;;;5011063;28;20053;-65
2022/06/12 12:01:18;;;;;;;10.95;3.08;;;;;;;;;;5010118;28;20073;-66
2022/06/12 12:03:50;;;;;;;11.40;2.97;;;;;;;;;;5006511;28;20045;-68
2022/06/12 12:06:36;;;;;;;9.38;2.45;;;;;;;;;;5009672;28;20079;-64
2022/06/12 12:09:25;;;;;;;17.55;3.40;;;;;;;;;;5005478;28;20050;-74
2022/06/12 12:11:55;;;;;;;9.63;2.50;;;;;;;;;;5006529;28;20084;-63
2022/06/12 12:14:24;;;;;;;11.23;2.70;;;;;;;;;;5010364;28;20038;-64
2022/06/12 12:16:53;;;;;;;13.38;2.70;;;;;;;;;;5010218;28;20058;-69
2022/06/12 12:19:25;;;;;;;9.60;2.75;;;;;;;;;;5010511;28;20042;-65
2022/06/12 12:21:57;;;;;;;12.07;3.17;;;;;;;;;;5010421;28;20093;-66
2022/06/12 12:24:27;;;;;;;12.68;3.10;;;;;;;;;;5010266;28;20080;-65
2022/06/12 12:26:55;;;;;;;9.35;2.60;;;;;;;;;;5009693;28;20121;-67
2022/06/12 12:29:23;;;;;;;18.13;3.60;;;;;;;;;;5010124;28;20136;-68
2022/06/12 12:31:50;;;;;;;17.40;2.78;;;;;;;;;;5009836;28;20151;-66
2022/06/12 12:34:16;;;;;;;11.48;3.35;;;;;;;;;;5013532;28;20548;-66
2022/06/12 12:42:26;;;;;;;13.55;2.78;;;;;;;;;;5014249;28;20137;-64
2022/06/12 12:44:52;;;;;;;10.80;2.80;;;;;;;;;;5015964;28;20104;-68
2022/06/12 12:47:26;;;;;;;12.80;3.20;;;;;;;;;;5015299;28;20133;-67
2022/06/12 12:50:11;;;;;;;13.27;2.88;;;;;;;;;;5015080;28;20557;-68
2022/06/12 12:52:41;;;;;;;14.75;3.55;;;;;;;;;;5014366;28;20057;-68
2022/06/12 12:55:18;;;;;;;13.65;3.33;;;;;;;;;;5014336;28;20081;-68
2022/06/12 12:57:46;;;;;;;13.73;2.97;;;;;;;;;;5014078;28;20057;-67
2022/06/12 13:00:18;;;;;;;15.80;2.95;;;;;;;;;;5014605;28;20053;-67
2022/06/12 13:02:53;;;;;;;14.30;3.13;;;;;;;;;;5014192;28;20085;-66
2022/06/12 13:05:22;;;;;;;12.03;2.90;;;;;;;;;;5014034;28;20196;-66
2022/06/12 13:08:09;;;;;;;11.45;3.08;;;;;;;;;;5014122;28;20511;-66
2022/06/12 13:10:45;;;;;;;12.02;2.92;;;;;;;;;;5009790;28;20089;-67
2022/06/12 13:13:19;;;;;;;14.13;2.80;;;;;;;;;;5013674;28;20046;-65
2022/06/12 13:15:48;;;;;;;14.02;3.00;;;;;;;;;;5013088;28;20049;-63
2022/06/12 13:18:33;;;;;;;14.13;3.13;;;;;;;;;;5013218;28;20045;-65
2022/06/12 13:21:05;;;;;;;13.82;3.38;;;;;;;;;;5012447;28;20502;-67
2022/06/12 13:23:53;;;;;;;14.57;3.47;;;;;;;;;;5013280;28;20034;-65
2022/06/12 13:26:20;;;;;;;17.83;3.42;;;;;;;;;;4995587;28;20060;-67
2022/06/12 13:28:57;;;;;;;13.98;3.20;;;;;;;;;;5012335;28;20122;-75
2022/06/12 13:31:23;;;;;;;14.95;3.25;;;;;;;;;;5012564;28;20050;-68
2022/06/12 13:33:54;;;;;;;14.18;3.25;;;;;;;;;;5012932;28;20091;-75
2022/06/12 13:36:23;;;;;;;14.18;3.85;;;;;;;;;;4994292;28;20563;-69
2022/06/12 13:38:52;;;;;;;13.48;3.25;;;;;;;;;;5012846;28;20088;-74
2022/06/12 13:41:24;;;;;;;12.90;3.17;;;;;;;;;;5012582;28;20050;-71
2022/06/12 13:43:50;;;;;;;15.15;3.60;;;;;;;;;;5014499;28;20073;-73
2022/06/12 13:46:19;;;;;;;14.35;3.05;;;;;;;;;;5013942;28;20046;-76
2022/06/12 13:48:46;;;;;;;15.85;3.50;;;;;;;;;;5013710;28;20050;-74
2022/06/12 13:51:21;;;;;;;14.07;3.95;;;;;;;;;;5013791;28;20419;-69
2022/06/12 13:53:49;;;;;;;13.20;3.75;;;;;;;;;;5012490;28;20366;-75
2022/06/12 13:56:16;;;;;;;15.15;3.88;;;;;;;;;;5011977;28;20054;-76
2022/06/12 13:58:49;;;;;;;15.63;4.22;;;;;;;;;;5013109;28;20253;-71
2022/06/12 14:01:17;;;;;;;15.85;4.22;;;;;;;;;;5012515;28;20089;-72
2022/06/12 14:03:51;;;;;;;18.08;4.32;;;;;;;;;;5011606;28;20050;-69
2022/06/12 14:06:20;;;;;;;19.27;4.90;;;;;;;;;;5011077;28;20065;-70
2022/06/12 14:08:46;;;;;;;16.00;3.92;;;;;;;;;;5012902;28;20123;-70
2022/06/12 14:11:31;;;;;;;21.05;4.78;;;;;;;;;;5011853;28;20097;-71
2022/06/12 14:13:58;;;;;;;14.73;3.90;;;;;;;;;;5012145;28;20386;-71
2022/06/12 14:16:26;;;;;;;14.20;3.67;;;;;;;;;;5013007;28;20084;-68
2022/06/12 14:19:00;;;;;;;13.23;4.10;;;;;;;;;;5012467;28;20095;-71
2022/06/12 14:21:31;;;;;;;16.25;4.35;;;;;;;;;;5012035;28;20132;-81
2022/06/12 14:24:01;;;;;;;13.30;4.47;;;;;;;;;;5012909;28;20380;-74
2022/06/12 14:26:31;;;;;;;19.25;4.72;;;;;;;;;;5011302;28;20069;-73
2022/06/12 14:28:58;;;;;;;17.13;4.18;;;;;;;;;;5010237;28;20052;-73
2022/06/12 14:31:27;;;;;;;16.83;4.57;;;;;;;;;;5012235;28;20415;-72
2022/06/12 14:33:56;;;;;;;19.15;5.05;;;;;;;;;;5011969;28;20093;-74
2022/06/12 14:36:25;;;;;;;12.27;3.75;;;;;;;;;;5011935;28;20117;-81
2022/06/12 14:38:51;;;;;;;15.95;4.63;;;;;;;;;;5011872;28;20084;-77
2022/06/12 14:41:17;;;;;;;;;;;;;;;;;;4993709;28;20468;-70
2022/06/12 14:43:43;;;;;;;16.75;4.85;;;;;;;;;;5011512;28;20008;-73
2022/06/12 14:46:13;;;;;;;21.75;4.63;;;;;;;;;;5011527;28;20042;-81
2022/06/12 14:48:39;;;;;;;16.25;4.53;;;;;;;;;;5010881;28;20369;-72
2022/06/12 14:51:06;;;;;;;16.60;4.97;;;;;;;;;;5009798;28;20358;-72
2022/06/12 14:53:32;;;;;;;18.25;5.07;;;;;;;;;;5009499;28;20104;-71
2022/06/12 14:56:02;;;;;;;19.08;4.65;;;;;;;;;;5011265;28;20053;-70
2022/06/12 14:58:32;;;;;;;17.15;5.13;;;;;;;;;;5011134;28;20057;-70
2022/06/12 15:01:03;;;;;;;15.07;4.43;;;;;;;;;;5011978;28;20076;-67
2022/06/12 15:03:31;;;;;;;16.95;4.70;;;;;;;;;;5010737;28;20048;-70
2022/06/12 15:05:59;;;;;;;17.88;4.45;;;;;;;;;;5011794;28;20046;-71
2022/06/12 15:08:25;;;;;;;14.43;4.55;;;;;;;;;;5010911;28;20064;-69
2022/06/12 15:10:51;;;;;;;;;;;;;;;;;;5011912;28;20064;-70